sensor_id;sensor_type;location;lat;lon;timestamp;P1;durP1;ratioP1;P2;durP2;ratioP2
72156;SDS011;60035;52.122;5.406;2024-01-27T00:01:17;17.23;;;3.05;;
72156;SDS011;60035;52.122;5.406;2024-01-27T00:03:44;12.85;;;2.53;;
72156;SDS011;60035;52.122;5.406;2024-01-27T00:06:10;11.38;;;2.72;;
72156;SDS011;60035;52.122;5.406;2024-01-27T00:08:38;14.98;;;3.03;;
72156;SDS011;60035;52.122;5.406;2024-01-27T00:11:07;14.10;;;2.60;;
72156;SDS011;60035;52.122;5.406;2024-01-27T00:13:34;14.88;;;3.00;;
72156;SDS011;60035;52.122;5.406;2024-01-27T00:16:01;9.40;;;2.55;;
72156;SDS011;60035;52.122;5.406;2024-01-27T00:18:27;14.85;;;3.45;;
72156;SDS011;60035;52.122;5.406;2024-01-27T00:20:54;19.13;;;3.10;;
72156;SDS011;60035;52.122;5.406;2024-01-27T00:23:21;16.45;;;3.33;;
72156;SDS011;60035;52.122;5.406;2024-01-27T00:25:48;16.38;;;3.00;;
72156;SDS011;60035;52.122;5.406;2024-01-27T00:28:15;15.80;;;3.20;;
72156;SDS011;60035;52.122;5.406;2024-01-27T00:30:51;17.90;;;3.45;;
72156;SDS011;60035;52.122;5.406;2024-01-27T00:33:18;12.75;;;3.05;;
72156;SDS011;60035;52.122;5.406;2024-01-27T00:35:45;14.38;;;3.03;;
72156;SDS011;60035;52.122;5.406;2024-01-27T00:38:11;7.05;;;2.45;;
72156;SDS011;60035;52.122;5.406;2024-01-27T00:40:38;12.63;;;2.92;;
72156;SDS011;60035;52.122;5.406;2024-01-27T00:43:05;9.48;;;2.90;;
72156;SDS011;60035;52.122;5.406;2024-01-27T00:45:31;9.10;;;2.53;;
72156;SDS011;60035;52.122;5.406;2024-01-27T00:47:58;20.95;;;3.03;;
72156;SDS011;60035;52.122;5.406;2024-01-27T00:50:31;12.60;;;2.80;;
72156;SDS011;60035;52.122;5.406;2024-01-27T00:52:58;9.43;;;2.58;;
72156;SDS011;60035;52.122;5.406;2024-01-27T00:55:24;12.55;;;3.22;;
72156;SDS011;60035;52.122;5.406;2024-01-27T00:57:51;19.02;;;3.10;;
72156;SDS011;60035;52.122;5.406;2024-01-27T01:00:21;13.60;;;2.67;;
72156;SDS011;60035;52.122;5.406;2024-01-27T01:02:48;13.43;;;3.38;;
72156;SDS011;60035;52.122;5.406;2024-01-27T01:05:15;15.65;;;3.30;;
72156;SDS011;60035;52.122;5.406;2024-01-27T01:07:41;19.25;;;3.13;;
72156;SDS011;60035;52.122;5.406;2024-01-27T01:10:11;12.10;;;2.72;;
72156;SDS011;60035;52.122;5.406;2024-01-27T01:12:38;18.50;;;2.95;;
72156;SDS011;60035;52.122;5.406;2024-01-27T01:15:05;11.98;;;3.08;;
72156;SDS011;60035;52.122;5.406;2024-01-27T01:17:32;13.13;;;3.03;;
72156;SDS011;60035;52.122;5.406;2024-01-27T01:20:04;14.02;;;3.05;;
72156;SDS011;60035;52.122;5.406;2024-01-27T01:22:31;16.27;;;3.22;;
72156;SDS011;60035;52.122;5.406;2024-01-27T01:24:57;15.35;;;2.67;;
72156;SDS011;60035;52.122;5.406;2024-01-27T01:27:24;13.05;;;2.83;;
72156;SDS011;60035;52.122;5.406;2024-01-27T01:29:51;12.02;;;2.35;;
72156;SDS011;60035;52.122;5.406;2024-01-27T01:32:19;13.40;;;2.45;;
72156;SDS011;60035;52.122;5.406;2024-01-27T01:34:46;13.38;;;2.83;;
72156;SDS011;60035;52.122;5.406;2024-01-27T01:37:14;8.18;;;2.67;;
72156;SDS011;60035;52.122;5.406;2024-01-27T01:39:42;11.90;;;2.47;;
72156;SDS011;60035;52.122;5.406;2024-01-27T01:42:08;12.75;;;3.03;;
72156;SDS011;60035;52.122;5.406;2024-01-27T01:44:35;13.38;;;2.75;;
72156;SDS011;60035;52.122;5.406;2024-01-27T01:47:02;12.88;;;2.67;;
72156;SDS011;60035;52.122;5.406;2024-01-27T01:49:29;12.52;;;3.08;;
72156;SDS011;60035;52.122;5.406;2024-01-27T01:51:56;13.98;;;2.63;;
72156;SDS011;60035;52.122;5.406;2024-01-27T01:54:24;10.00;;;2.40;;
72156;SDS011;60035;52.122;5.406;2024-01-27T01:56:55;11.07;;;2.42;;
72156;SDS011;60035;52.122;5.406;2024-01-27T01:59:24;13.45;;;2.53;;
72156;SDS011;60035;52.122;5.406;2024-01-27T02:01:53;12.13;;;2.20;;
72156;SDS011;60035;52.122;5.406;2024-01-27T02:04:22;8.40;;;2.33;;
72156;SDS011;60035;52.122;5.406;2024-01-27T02:06:49;13.60;;;2.65;;
72156;SDS011;60035;52.122;5.406;2024-01-27T02:09:15;8.02;;;2.05;;
72156;SDS011;60035;52.122;5.406;2024-01-27T02:11:45;12.10;;;3.25;;
72156;SDS011;60035;52.122;5.406;2024-01-27T02:14:11;10.05;;;2.53;;
72156;SDS011;60035;52.122;5.406;2024-01-27T02:16:39;15.02;;;2.58;;
72156;SDS011;60035;52.122;5.406;2024-01-27T02:19:05;11.27;;;2.45;;
72156;SDS011;60035;52.122;5.406;2024-01-27T02:21:32;10.77;;;2.60;;
72156;SDS011;60035;52.122;5.406;2024-01-27T02:24:02;12.40;;;2.58;;
72156;SDS011;60035;52.122;5.406;2024-01-27T02:26:28;11.90;;;2.45;;
72156;SDS011;60035;52.122;5.406;2024-01-27T02:28:55;10.50;;;2.30;;
72156;SDS011;60035;52.122;5.406;2024-01-27T02:31:28;16.25;;;2.83;;
72156;SDS011;60035;52.122;5.406;2024-01-27T02:33:54;8.82;;;2.08;;
72156;SDS011;60035;52.122;5.406;2024-01-27T02:36:21;14.32;;;2.25;;
72156;SDS011;60035;52.122;5.406;2024-01-27T02:38:48;11.27;;;1.95;;
72156;SDS011;60035;52.122;5.406;2024-01-27T02:41:16;12.48;;;2.38;;
72156;SDS011;60035;52.122;5.406;2024-01-27T02:43:42;17.33;;;2.35;;
72156;SDS011;60035;52.122;5.406;2024-01-27T02:46:10;8.13;;;1.58;;
72156;SDS011;60035;52.122;5.406;2024-01-27T02:48:44;13.38;;;2.60;;
72156;SDS011;60035;52.122;5.406;2024-01-27T02:51:27;12.85;;;2.08;;
72156;SDS011;60035;52.122;5.406;2024-01-27T02:53:54;10.25;;;1.85;;
72156;SDS011;60035;52.122;5.406;2024-01-27T02:56:21;19.58;;;2.20;;
72156;SDS011;60035;52.122;5.406;2024-01-27T02:58:47;13.18;;;1.83;;
72156;SDS011;60035;52.122;5.406;2024-01-27T03:01:14;14.23;;;2.50;;
72156;SDS011;60035;52.122;5.406;2024-01-27T03:03:41;10.55;;;2.08;;
72156;SDS011;60035;52.122;5.406;2024-01-27T03:06:07;14.93;;;2.03;;
72156;SDS011;60035;52.122;5.406;2024-01-27T03:08:34;10.10;;;2.08;;
72156;SDS011;60035;52.122;5.406;2024-01-27T03:11:02;11.10;;;2.28;;
72156;SDS011;60035;52.122;5.406;2024-01-27T03:13:29;11.48;;;2.17;;
72156;SDS011;60035;52.122;5.406;2024-01-27T03:15:56;9.32;;;1.77;;
72156;SDS011;60035;52.122;5.406;2024-01-27T03:18:22;14.68;;;2.38;;
72156;SDS011;60035;52.122;5.406;2024-01-27T03:20:52;14.20;;;2.15;;
72156;SDS011;60035;52.122;5.406;2024-01-27T03:23:18;7.35;;;2.45;;
72156;SDS011;60035;52.122;5.406;2024-01-27T03:25:45;9.60;;;2.47;;
72156;SDS011;60035;52.122;5.406;2024-01-27T03:28:12;20.20;;;2.85;;
72156;SDS011;60035;52.122;5.406;2024-01-27T03:30:39;16.85;;;3.05;;
72156;SDS011;60035;52.122;5.406;2024-01-27T03:33:06;15.68;;;3.45;;
72156;SDS011;60035;52.122;5.406;2024-01-27T03:35:37;9.68;;;3.35;;
72156;SDS011;60035;52.122;5.406;2024-01-27T03:38:04;11.68;;;3.33;;
72156;SDS011;60035;52.122;5.406;2024-01-27T03:40:36;16.73;;;3.58;;
72156;SDS011;60035;52.122;5.406;2024-01-27T03:43:03;12.90;;;3.63;;
72156;SDS011;60035;52.122;5.406;2024-01-27T03:45:29;16.77;;;5.43;;
72156;SDS011;60035;52.122;5.406;2024-01-27T03:47:56;10.60;;;3.95;;
72156;SDS011;60035;52.122;5.406;2024-01-27T03:50:23;15.98;;;4.28;;
72156;SDS011;60035;52.122;5.406;2024-01-27T03:52:50;19.05;;;4.45;;
72156;SDS011;60035;52.122;5.406;2024-01-27T03:55:16;16.75;;;4.65;;
72156;SDS011;60035;52.122;5.406;2024-01-27T03:57:43;20.55;;;6.32;;
72156;SDS011;60035;52.122;5.406;2024-01-27T04:00:10;15.32;;;4.85;;
72156;SDS011;60035;52.122;5.406;2024-01-27T04:02:38;21.30;;;5.28;;
72156;SDS011;60035;52.122;5.406;2024-01-27T04:05:05;17.80;;;6.25;;
72156;SDS011;60035;52.122;5.406;2024-01-27T04:07:32;15.20;;;5.18;;
72156;SDS011;60035;52.122;5.406;2024-01-27T04:10:02;19.42;;;6.07;;
72156;SDS011;60035;52.122;5.406;2024-01-27T04:12:30;19.65;;;6.32;;
72156;SDS011;60035;52.122;5.406;2024-01-27T04:14:57;16.17;;;5.78;;
72156;SDS011;60035;52.122;5.406;2024-01-27T04:17:24;17.70;;;5.80;;
72156;SDS011;60035;52.122;5.406;2024-01-27T04:20:04;17.45;;;5.15;;
72156;SDS011;60035;52.122;5.406;2024-01-27T04:22:32;18.42;;;6.38;;
72156;SDS011;60035;52.122;5.406;2024-01-27T04:24:58;18.38;;;6.72;;
72156;SDS011;60035;52.122;5.406;2024-01-27T04:27:26;16.20;;;6.25;;
72156;SDS011;60035;52.122;5.406;2024-01-27T04:29:53;17.58;;;7.18;;
72156;SDS011;60035;52.122;5.406;2024-01-27T04:32:20;18.13;;;6.35;;
72156;SDS011;60035;52.122;5.406;2024-01-27T04:34:47;16.35;;;5.72;;
72156;SDS011;60035;52.122;5.406;2024-01-27T04:37:14;16.70;;;5.53;;
72156;SDS011;60035;52.122;5.406;2024-01-27T04:39:40;18.73;;;5.55;;
72156;SDS011;60035;52.122;5.406;2024-01-27T04:42:07;24.63;;;7.22;;
72156;SDS011;60035;52.122;5.406;2024-01-27T04:44:34;21.25;;;7.43;;
72156;SDS011;60035;52.122;5.406;2024-01-27T04:47:01;18.15;;;7.20;;
72156;SDS011;60035;52.122;5.406;2024-01-27T04:49:27;20.23;;;6.78;;
72156;SDS011;60035;52.122;5.406;2024-01-27T04:51:54;18.55;;;7.75;;
72156;SDS011;60035;52.122;5.406;2024-01-27T04:54:20;23.17;;;6.75;;
72156;SDS011;60035;52.122;5.406;2024-01-27T04:56:47;21.77;;;7.05;;
72156;SDS011;60035;52.122;5.406;2024-01-27T04:59:14;19.27;;;6.82;;
72156;SDS011;60035;52.122;5.406;2024-01-27T05:01:48;23.92;;;8.65;;
72156;SDS011;60035;52.122;5.406;2024-01-27T05:04:14;23.90;;;7.60;;
72156;SDS011;60035;52.122;5.406;2024-01-27T05:06:44;15.98;;;7.15;;
72156;SDS011;60035;52.122;5.406;2024-01-27T05:09:15;28.73;;;7.55;;
72156;SDS011;60035;52.122;5.406;2024-01-27T05:11:45;24.15;;;7.60;;
72156;SDS011;60035;52.122;5.406;2024-01-27T05:14:11;22.25;;;9.15;;
72156;SDS011;60035;52.122;5.406;2024-01-27T05:16:38;24.65;;;8.63;;
72156;SDS011;60035;52.122;5.406;2024-01-27T05:19:05;21.55;;;7.82;;
72156;SDS011;60035;52.122;5.406;2024-01-27T05:21:37;22.05;;;9.75;;
72156;SDS011;60035;52.122;5.406;2024-01-27T05:24:04;22.05;;;9.40;;
72156;SDS011;60035;52.122;5.406;2024-01-27T05:26:31;19.65;;;8.70;;
72156;SDS011;60035;52.122;5.406;2024-01-27T05:28:58;22.05;;;9.05;;
72156;SDS011;60035;52.122;5.406;2024-01-27T05:31:26;23.63;;;9.40;;
72156;SDS011;60035;52.122;5.406;2024-01-27T05:33:53;27.52;;;9.75;;
72156;SDS011;60035;52.122;5.406;2024-01-27T05:36:20;27.30;;;10.00;;
72156;SDS011;60035;52.122;5.406;2024-01-27T05:38:46;26.15;;;9.93;;
72156;SDS011;60035;52.122;5.406;2024-01-27T05:41:14;22.30;;;9.70;;
72156;SDS011;60035;52.122;5.406;2024-01-27T05:43:40;25.20;;;9.82;;
72156;SDS011;60035;52.122;5.406;2024-01-27T05:46:08;27.00;;;10.55;;
72156;SDS011;60035;52.122;5.406;2024-01-27T05:48:35;26.60;;;9.32;;
72156;SDS011;60035;52.122;5.406;2024-01-27T05:51:08;26.60;;;10.98;;
72156;SDS011;60035;52.122;5.406;2024-01-27T05:53:35;28.50;;;10.85;;
72156;SDS011;60035;52.122;5.406;2024-01-27T05:56:03;24.95;;;13.27;;
72156;SDS011;60035;52.122;5.406;2024-01-27T05:58:29;23.15;;;9.80;;
72156;SDS011;60035;52.122;5.406;2024-01-27T06:01:08;22.35;;;11.10;;
72156;SDS011;60035;52.122;5.406;2024-01-27T06:03:36;23.85;;;10.93;;
72156;SDS011;60035;52.122;5.406;2024-01-27T06:06:02;20.88;;;10.68;;
72156;SDS011;60035;52.122;5.406;2024-01-27T06:08:29;26.27;;;12.32;;
72156;SDS011;60035;52.122;5.406;2024-01-27T06:11:22;28.15;;;12.68;;
72156;SDS011;60035;52.122;5.406;2024-01-27T06:13:49;21.45;;;10.82;;
72156;SDS011;60035;52.122;5.406;2024-01-27T06:16:17;27.63;;;11.40;;
72156;SDS011;60035;52.122;5.406;2024-01-27T06:18:45;29.65;;;14.82;;
72156;SDS011;60035;52.122;5.406;2024-01-27T06:21:13;28.67;;;11.05;;
72156;SDS011;60035;52.122;5.406;2024-01-27T06:23:40;24.48;;;11.77;;
72156;SDS011;60035;52.122;5.406;2024-01-27T06:26:06;23.10;;;11.38;;
72156;SDS011;60035;52.122;5.406;2024-01-27T06:28:33;34.85;;;13.60;;
72156;SDS011;60035;52.122;5.406;2024-01-27T06:31:05;22.92;;;10.75;;
72156;SDS011;60035;52.122;5.406;2024-01-27T06:33:32;29.40;;;12.55;;
72156;SDS011;60035;52.122;5.406;2024-01-27T06:35:58;28.15;;;11.68;;
72156;SDS011;60035;52.122;5.406;2024-01-27T06:38:26;33.10;;;12.45;;
72156;SDS011;60035;52.122;5.406;2024-01-27T06:41:01;31.58;;;12.57;;
72156;SDS011;60035;52.122;5.406;2024-01-27T06:43:27;28.20;;;12.85;;
72156;SDS011;60035;52.122;5.406;2024-01-27T06:45:53;27.00;;;11.48;;
72156;SDS011;60035;52.122;5.406;2024-01-27T06:48:22;27.23;;;12.82;;
72156;SDS011;60035;52.122;5.406;2024-01-27T06:50:53;29.85;;;12.45;;
72156;SDS011;60035;52.122;5.406;2024-01-27T06:53:20;25.92;;;12.20;;
72156;SDS011;60035;52.122;5.406;2024-01-27T06:55:46;31.75;;;13.43;;
72156;SDS011;60035;52.122;5.406;2024-01-27T06:58:13;26.48;;;11.70;;
72156;SDS011;60035;52.122;5.406;2024-01-27T07:03:26;31.92;;;14.07;;
72156;SDS011;60035;52.122;5.406;2024-01-27T07:05:52;23.67;;;12.02;;
72156;SDS011;60035;52.122;5.406;2024-01-27T07:08:19;29.70;;;12.50;;
72156;SDS011;60035;52.122;5.406;2024-01-27T07:10:47;29.02;;;13.10;;
72156;SDS011;60035;52.122;5.406;2024-01-27T07:13:13;34.08;;;13.45;;
72156;SDS011;60035;52.122;5.406;2024-01-27T07:15:41;25.95;;;13.32;;
72156;SDS011;60035;52.122;5.406;2024-01-27T07:18:08;32.08;;;14.02;;
72156;SDS011;60035;52.122;5.406;2024-01-27T07:20:41;31.60;;;12.35;;
72156;SDS011;60035;52.122;5.406;2024-01-27T07:23:07;26.08;;;12.68;;
72156;SDS011;60035;52.122;5.406;2024-01-27T07:25:34;28.40;;;13.35;;
72156;SDS011;60035;52.122;5.406;2024-01-27T07:28:01;24.20;;;12.18;;
72156;SDS011;60035;52.122;5.406;2024-01-27T07:30:31;27.15;;;14.23;;
72156;SDS011;60035;52.122;5.406;2024-01-27T07:32:57;23.23;;;11.93;;
72156;SDS011;60035;52.122;5.406;2024-01-27T07:35:24;32.63;;;13.95;;
72156;SDS011;60035;52.122;5.406;2024-01-27T07:37:50;26.90;;;13.48;;
72156;SDS011;60035;52.122;5.406;2024-01-27T07:40:17;26.30;;;12.43;;
72156;SDS011;60035;52.122;5.406;2024-01-27T07:42:43;25.05;;;13.75;;
72156;SDS011;60035;52.122;5.406;2024-01-27T07:45:10;24.20;;;12.65;;
72156;SDS011;60035;52.122;5.406;2024-01-27T07:47:37;30.42;;;12.52;;
72156;SDS011;60035;52.122;5.406;2024-01-27T07:50:05;29.20;;;13.75;;
72156;SDS011;60035;52.122;5.406;2024-01-27T07:52:32;34.50;;;11.85;;
72156;SDS011;60035;52.122;5.406;2024-01-27T07:54:58;28.33;;;13.18;;
72156;SDS011;60035;52.122;5.406;2024-01-27T07:57:25;25.67;;;12.18;;
72156;SDS011;60035;52.122;5.406;2024-01-27T07:59:52;30.27;;;13.27;;
72156;SDS011;60035;52.122;5.406;2024-01-27T08:02:19;30.30;;;11.93;;
72156;SDS011;60035;52.122;5.406;2024-01-27T08:04:45;29.33;;;11.95;;
72156;SDS011;60035;52.122;5.406;2024-01-27T08:07:12;43.28;;;16.30;;
72156;SDS011;60035;52.122;5.406;2024-01-27T08:09:43;25.58;;;11.82;;
72156;SDS011;60035;52.122;5.406;2024-01-27T08:12:10;25.85;;;10.57;;
72156;SDS011;60035;52.122;5.406;2024-01-27T08:14:36;29.90;;;11.85;;
72156;SDS011;60035;52.122;5.406;2024-01-27T08:17:03;24.50;;;10.25;;
72156;SDS011;60035;52.122;5.406;2024-01-27T08:19:30;25.35;;;10.65;;
72156;SDS011;60035;52.122;5.406;2024-01-27T08:21:57;29.38;;;10.75;;
72156;SDS011;60035;52.122;5.406;2024-01-27T08:24:24;32.90;;;12.80;;
72156;SDS011;60035;52.122;5.406;2024-01-27T08:26:51;25.48;;;10.68;;
72156;SDS011;60035;52.122;5.406;2024-01-27T08:29:18;22.08;;;10.38;;
72156;SDS011;60035;52.122;5.406;2024-01-27T08:31:47;26.10;;;10.85;;
72156;SDS011;60035;52.122;5.406;2024-01-27T08:34:13;27.55;;;10.95;;
72156;SDS011;60035;52.122;5.406;2024-01-27T08:36:40;25.08;;;10.00;;
72156;SDS011;60035;52.122;5.406;2024-01-27T08:39:07;25.95;;;10.82;;
72156;SDS011;60035;52.122;5.406;2024-01-27T08:41:36;25.67;;;11.10;;
72156;SDS011;60035;52.122;5.406;2024-01-27T08:44:03;25.52;;;9.57;;
72156;SDS011;60035;52.122;5.406;2024-01-27T08:46:32;23.60;;;10.52;;
72156;SDS011;60035;52.122;5.406;2024-01-27T08:48:59;22.30;;;10.27;;
72156;SDS011;60035;52.122;5.406;2024-01-27T08:51:26;22.75;;;9.82;;
72156;SDS011;60035;52.122;5.406;2024-01-27T08:53:53;20.75;;;10.27;;
72156;SDS011;60035;52.122;5.406;2024-01-27T08:56:19;21.38;;;10.27;;
72156;SDS011;60035;52.122;5.406;2024-01-27T08:58:46;20.50;;;10.07;;
72156;SDS011;60035;52.122;5.406;2024-01-27T09:01:19;22.80;;;9.50;;
72156;SDS011;60035;52.122;5.406;2024-01-27T09:03:46;20.80;;;9.55;;
72156;SDS011;60035;52.122;5.406;2024-01-27T09:06:12;26.27;;;10.10;;
72156;SDS011;60035;52.122;5.406;2024-01-27T09:08:39;22.30;;;9.38;;
72156;SDS011;60035;52.122;5.406;2024-01-27T09:11:09;21.15;;;9.60;;
72156;SDS011;60035;52.122;5.406;2024-01-27T09:13:36;18.63;;;8.73;;
72156;SDS011;60035;52.122;5.406;2024-01-27T09:16:02;21.65;;;9.50;;
72156;SDS011;60035;52.122;5.406;2024-01-27T09:18:29;20.27;;;8.65;;
72156;SDS011;60035;52.122;5.406;2024-01-27T09:20:58;24.30;;;9.30;;
72156;SDS011;60035;52.122;5.406;2024-01-27T09:23:25;22.70;;;9.18;;
72156;SDS011;60035;52.122;5.406;2024-01-27T09:25:52;26.50;;;9.50;;
72156;SDS011;60035;52.122;5.406;2024-01-27T09:28:18;20.08;;;9.27;;
72156;SDS011;60035;52.122;5.406;2024-01-27T09:30:57;19.13;;;9.40;;
72156;SDS011;60035;52.122;5.406;2024-01-27T09:33:23;24.73;;;9.60;;
72156;SDS011;60035;52.122;5.406;2024-01-27T09:35:50;22.90;;;9.85;;
72156;SDS011;60035;52.122;5.406;2024-01-27T09:38:16;20.15;;;8.32;;
72156;SDS011;60035;52.122;5.406;2024-01-27T09:40:46;23.00;;;9.13;;
72156;SDS011;60035;52.122;5.406;2024-01-27T09:43:13;23.13;;;9.45;;
72156;SDS011;60035;52.122;5.406;2024-01-27T09:45:41;26.00;;;8.70;;
72156;SDS011;60035;52.122;5.406;2024-01-27T09:48:08;24.33;;;9.95;;
72156;SDS011;60035;52.122;5.406;2024-01-27T09:55:58;23.98;;;9.27;;
72156;SDS011;60035;52.122;5.406;2024-01-27T09:58:25;22.95;;;9.43;;
72156;SDS011;60035;52.122;5.406;2024-01-27T10:01:04;19.80;;;8.88;;
72156;SDS011;60035;52.122;5.406;2024-01-27T10:05:58;19.85;;;8.75;;
72156;SDS011;60035;52.122;5.406;2024-01-27T10:08:25;23.73;;;9.15;;
72156;SDS011;60035;52.122;5.406;2024-01-27T10:13:40;18.23;;;8.52;;
72156;SDS011;60035;52.122;5.406;2024-01-27T10:16:07;31.45;;;10.75;;
72156;SDS011;60035;52.122;5.406;2024-01-27T10:18:35;25.13;;;9.77;;
72156;SDS011;60035;52.122;5.406;2024-01-27T10:23:50;22.98;;;10.88;;
72156;SDS011;60035;52.122;5.406;2024-01-27T10:26:17;20.55;;;8.32;;
72156;SDS011;60035;52.122;5.406;2024-01-27T10:28:54;21.77;;;8.45;;
72156;SDS011;60035;52.122;5.406;2024-01-27T10:31:29;19.20;;;8.52;;
72156;SDS011;60035;52.122;5.406;2024-01-27T10:33:56;23.10;;;10.50;;
72156;SDS011;60035;52.122;5.406;2024-01-27T10:36:24;19.98;;;7.97;;
72156;SDS011;60035;52.122;5.406;2024-01-27T10:38:52;24.80;;;9.35;;
72156;SDS011;60035;52.122;5.406;2024-01-27T10:41:24;21.20;;;9.02;;
72156;SDS011;60035;52.122;5.406;2024-01-27T10:43:52;22.42;;;9.50;;
72156;SDS011;60035;52.122;5.406;2024-01-27T10:46:20;21.52;;;8.82;;
72156;SDS011;60035;52.122;5.406;2024-01-27T10:48:50;24.02;;;8.73;;
72156;SDS011;60035;52.122;5.406;2024-01-27T10:51:29;22.90;;;8.27;;
72156;SDS011;60035;52.122;5.406;2024-01-27T10:54:02;20.65;;;8.38;;
72156;SDS011;60035;52.122;5.406;2024-01-27T10:56:30;24.08;;;10.35;;
72156;SDS011;60035;52.122;5.406;2024-01-27T10:58:58;19.15;;;8.27;;
72156;SDS011;60035;52.122;5.406;2024-01-27T11:01:26;22.15;;;7.82;;
72156;SDS011;60035;52.122;5.406;2024-01-27T11:03:54;21.50;;;7.93;;
72156;SDS011;60035;52.122;5.406;2024-01-27T11:06:22;21.55;;;7.28;;
72156;SDS011;60035;52.122;5.406;2024-01-27T11:08:49;18.27;;;7.57;;
72156;SDS011;60035;52.122;5.406;2024-01-27T11:11:17;23.75;;;7.97;;
72156;SDS011;60035;52.122;5.406;2024-01-27T11:13:44;20.40;;;7.78;;
72156;SDS011;60035;52.122;5.406;2024-01-27T11:16:17;22.83;;;7.68;;
72156;SDS011;60035;52.122;5.406;2024-01-27T11:18:45;16.60;;;7.00;;
72156;SDS011;60035;52.122;5.406;2024-01-27T11:21:15;23.50;;;7.63;;
72156;SDS011;60035;52.122;5.406;2024-01-27T11:26:16;23.70;;;7.13;;
72156;SDS011;60035;52.122;5.406;2024-01-27T11:28:45;25.40;;;7.82;;
72156;SDS011;60035;52.122;5.406;2024-01-27T11:31:12;18.90;;;7.60;;
72156;SDS011;60035;52.122;5.406;2024-01-27T11:33:42;14.88;;;6.93;;
72156;SDS011;60035;52.122;5.406;2024-01-27T11:36:19;17.67;;;6.57;;
72156;SDS011;60035;52.122;5.406;2024-01-27T11:38:51;19.98;;;7.07;;
72156;SDS011;60035;52.122;5.406;2024-01-27T11:41:25;18.65;;;7.05;;
72156;SDS011;60035;52.122;5.406;2024-01-27T11:43:55;16.60;;;6.95;;
72156;SDS011;60035;52.122;5.406;2024-01-27T11:46:23;21.52;;;6.57;;
72156;SDS011;60035;52.122;5.406;2024-01-27T11:48:51;22.02;;;7.25;;
72156;SDS011;60035;52.122;5.406;2024-01-27T11:51:24;21.33;;;7.43;;
72156;SDS011;60035;52.122;5.406;2024-01-27T11:53:51;14.88;;;6.00;;
72156;SDS011;60035;52.122;5.406;2024-01-27T11:56:18;19.25;;;6.63;;
72156;SDS011;60035;52.122;5.406;2024-01-27T11:58:47;14.80;;;5.78;;
72156;SDS011;60035;52.122;5.406;2024-01-27T12:01:16;16.80;;;6.03;;
72156;SDS011;60035;52.122;5.406;2024-01-27T12:03:43;15.65;;;6.10;;
72156;SDS011;60035;52.122;5.406;2024-01-27T12:06:11;18.98;;;5.68;;
72156;SDS011;60035;52.122;5.406;2024-01-27T12:08:43;18.52;;;5.75;;
72156;SDS011;60035;52.122;5.406;2024-01-27T12:11:15;15.60;;;6.78;;
72156;SDS011;60035;52.122;5.406;2024-01-27T12:13:47;16.80;;;5.10;;
72156;SDS011;60035;52.122;5.406;2024-01-27T12:16:14;22.38;;;6.03;;
72156;SDS011;60035;52.122;5.406;2024-01-27T12:18:41;17.60;;;5.25;;
72156;SDS011;60035;52.122;5.406;2024-01-27T12:21:18;15.90;;;5.50;;
72156;SDS011;60035;52.122;5.406;2024-01-27T12:23:55;18.88;;;5.72;;
72156;SDS011;60035;52.122;5.406;2024-01-27T12:26:26;20.20;;;5.97;;
72156;SDS011;60035;52.122;5.406;2024-01-27T12:28:54;19.27;;;6.15;;
72156;SDS011;60035;52.122;5.406;2024-01-27T12:31:25;14.88;;;5.15;;
72156;SDS011;60035;52.122;5.406;2024-01-27T12:33:54;15.27;;;5.10;;
72156;SDS011;60035;52.122;5.406;2024-01-27T12:36:23;20.52;;;6.13;;
72156;SDS011;60035;52.122;5.406;2024-01-27T12:43:54;14.85;;;5.20;;
72156;SDS011;60035;52.122;5.406;2024-01-27T12:46:21;14.45;;;5.30;;
72156;SDS011;60035;52.122;5.406;2024-01-27T12:48:48;12.70;;;4.25;;
72156;SDS011;60035;52.122;5.406;2024-01-27T12:51:15;16.73;;;4.65;;
72156;SDS011;60035;52.122;5.406;2024-01-27T12:53:42;13.15;;;4.25;;
72156;SDS011;60035;52.122;5.406;2024-01-27T12:56:11;20.35;;;5.47;;
72156;SDS011;60035;52.122;5.406;2024-01-27T12:58:38;14.85;;;4.97;;
72156;SDS011;60035;52.122;5.406;2024-01-27T13:01:08;17.60;;;5.95;;
72156;SDS011;60035;52.122;5.406;2024-01-27T13:03:35;20.67;;;5.97;;
72156;SDS011;60035;52.122;5.406;2024-01-27T13:06:02;22.00;;;5.72;;
72156;SDS011;60035;52.122;5.406;2024-01-27T13:08:29;20.42;;;5.70;;
72156;SDS011;60035;52.122;5.406;2024-01-27T13:10:57;16.80;;;4.97;;
72156;SDS011;60035;52.122;5.406;2024-01-27T13:13:23;18.20;;;4.63;;
72156;SDS011;60035;52.122;5.406;2024-01-27T13:15:50;13.80;;;5.22;;
72156;SDS011;60035;52.122;5.406;2024-01-27T13:18:16;14.18;;;4.28;;
72156;SDS011;60035;52.122;5.406;2024-01-27T13:20:46;13.70;;;4.43;;
72156;SDS011;60035;52.122;5.406;2024-01-27T13:23:12;21.02;;;5.47;;
72156;SDS011;60035;52.122;5.406;2024-01-27T13:25:38;14.80;;;4.78;;
72156;SDS011;60035;52.122;5.406;2024-01-27T13:30:42;10.35;;;4.00;;
72156;SDS011;60035;52.122;5.406;2024-01-27T13:33:09;18.85;;;5.00;;
72156;SDS011;60035;52.122;5.406;2024-01-27T13:35:36;20.73;;;5.35;;
72156;SDS011;60035;52.122;5.406;2024-01-27T13:38:03;19.52;;;4.85;;
72156;SDS011;60035;52.122;5.406;2024-01-27T13:40:32;15.88;;;4.20;;
72156;SDS011;60035;52.122;5.406;2024-01-27T13:42:58;21.42;;;4.93;;
72156;SDS011;60035;52.122;5.406;2024-01-27T13:45:26;17.08;;;4.35;;
72156;SDS011;60035;52.122;5.406;2024-01-27T13:47:53;18.42;;;5.22;;
72156;SDS011;60035;52.122;5.406;2024-01-27T13:50:19;13.38;;;4.28;;
72156;SDS011;60035;52.122;5.406;2024-01-27T13:52:46;14.52;;;5.07;;
72156;SDS011;60035;52.122;5.406;2024-01-27T13:55:14;16.17;;;4.60;;
72156;SDS011;60035;52.122;5.406;2024-01-27T13:57:41;19.58;;;5.47;;
72156;SDS011;60035;52.122;5.406;2024-01-27T14:00:10;18.65;;;4.80;;
72156;SDS011;60035;52.122;5.406;2024-01-27T14:02:37;20.40;;;4.70;;
72156;SDS011;60035;52.122;5.406;2024-01-27T14:05:04;17.88;;;5.25;;
72156;SDS011;60035;52.122;5.406;2024-01-27T14:07:32;15.07;;;4.97;;
72156;SDS011;60035;52.122;5.406;2024-01-27T14:10:05;20.58;;;5.72;;
72156;SDS011;60035;52.122;5.406;2024-01-27T14:12:32;15.43;;;5.50;;
72156;SDS011;60035;52.122;5.406;2024-01-27T14:15:03;20.90;;;5.53;;
72156;SDS011;60035;52.122;5.406;2024-01-27T14:17:34;16.27;;;5.90;;
72156;SDS011;60035;52.122;5.406;2024-01-27T14:20:04;18.63;;;5.90;;
72156;SDS011;60035;52.122;5.406;2024-01-27T14:22:31;15.57;;;6.57;;
72156;SDS011;60035;52.122;5.406;2024-01-27T14:24:58;22.77;;;6.63;;
72156;SDS011;60035;52.122;5.406;2024-01-27T14:27:24;19.77;;;7.82;;
72156;SDS011;60035;52.122;5.406;2024-01-27T14:29:54;17.23;;;6.43;;
72156;SDS011;60035;52.122;5.406;2024-01-27T14:32:21;24.88;;;5.90;;
72156;SDS011;60035;52.122;5.406;2024-01-27T14:34:48;17.98;;;6.40;;
72156;SDS011;60035;52.122;5.406;2024-01-27T14:37:15;25.25;;;6.18;;
72156;SDS011;60035;52.122;5.406;2024-01-27T14:39:47;21.58;;;5.85;;
72156;SDS011;60035;52.122;5.406;2024-01-27T14:42:14;21.77;;;5.47;;
72156;SDS011;60035;52.122;5.406;2024-01-27T14:44:43;13.43;;;5.18;;
72156;SDS011;60035;52.122;5.406;2024-01-27T14:47:11;19.85;;;5.18;;
72156;SDS011;60035;52.122;5.406;2024-01-27T14:49:38;18.48;;;4.90;;
72156;SDS011;60035;52.122;5.406;2024-01-27T14:52:05;14.00;;;4.88;;
72156;SDS011;60035;52.122;5.406;2024-01-27T14:54:35;16.58;;;5.10;;
72156;SDS011;60035;52.122;5.406;2024-01-27T14:57:03;14.95;;;4.75;;
72156;SDS011;60035;52.122;5.406;2024-01-27T14:59:31;17.83;;;4.40;;
72156;SDS011;60035;52.122;5.406;2024-01-27T15:01:57;13.68;;;4.40;;